Nikkoumaru No.5 — JD2407 — position and weather

sailwx.info

Track history (hours):
 
Tides and Currents Weather Stations Pressure Air Temp Water Temp Dewpoint Dewpoint Depression Visibility Wind Speed Wind Dir Waves Ship Positions

Nikkoumaru No.5

Last reported at 2018-Feb-24 18:00 UTC. Time now 2018-Feb-24 18:10 UTC.
Position N 34°39' E 135°21'.

Length 61 m; draft 4.2 m.

Type: Tanker. MMSI: 431000214.

Date/timePositionNaut miles runAvg speedWind from/ knotsBaromVisibWave heightAir tempDewpointWater temp
2018-Feb-24 18:00N 34°39' E 135°21'0 0.0
2018-Feb-24 17:30N 34°39' E 135°21'0 0.0
2018-Feb-24 17:00N 34°39' E 135°21'3 5.8
2018-Feb-24 16:31N 34°37' E 135°18'611.3
2018-Feb-24 16:00N 34°32' E 135°14'611.1
2018-Feb-24 15:30N 34°28' E 135°10'611.1
2018-Feb-24 15:01N 34°23' E 135°06'611.1
2018-Feb-24 14:30N 34°19' E 135°01'510.0
2018-Feb-24 14:00N 34°14' E 134°59'510.2
2018-Feb-24 13:30N 34°09' E 134°59'510.8
2018-Feb-24 13:00N 34°04' E 134°60'511.0
2018-Feb-24 12:31N 33°59' E 135°01'611.1
2018-Feb-24 11:59N 33°53' E 135°01'193 9.9
2018-Feb-23 16:26N 34°35' E 138°49'511.5
2018-Feb-23 15:59N 34°36' E 138°55'710.8
2018-Feb-23 15:20N 34°40' E 139°02'310.8
2018-Feb-23 15:01N 34°43' E 139°04'2310.8
2018-Feb-23 12:51N 34°59' E 139°24'510.7
2018-Feb-23 12:22N 35°02' E 139°30'411.5
2018-Feb-23 12:00N 35°04' E 139°34'611.9
2018-Feb-23 11:30N 35°07' E 139°41'611.6
2018-Feb-23 11:00N 35°11' E 139°45'510.7
2018-Feb-23 10:30N 35°17' E 139°45'611.2
2018-Feb-23 10:01N 35°22' E 139°42'510.6
2018-Feb-23 09:31N 35°26' E 139°46'611.7
2018-Feb-23 09:00N 35°30' E 139°51'611.7
2018-Feb-23 08:28N 35°32' E 139°59'4 8.6
2018-Feb-23 08:00N 35°32' E 140°04'0 0.0
2018-Feb-23 03:54N 35°32' E 140°04'1 3.0
2018-Feb-23 03:31N 35°32' E 140°02'3 5.5
2018-Feb-23 03:00N 35°32' E 139°59'511.0
2018-Feb-23 02:31N 35°29' E 139°53'611.0
2018-Feb-23 02:00N 35°27' E 139°47'510.7
2018-Feb-23 01:30N 35°27' E 139°40'1 1.0
2018-Feb-23 01:00N 35°27' E 139°40'0 0.0
2018-Feb-23 00:30N 35°27' E 139°40'0 0.0
2018-Feb-23 00:00N 35°27' E 139°40'0 0.0
2018-Feb-22 23:30N 35°27' E 139°40'0 0.0
2018-Feb-22 23:00N 35°27' E 139°40'0 0.0
2018-Feb-22 22:30N 35°27' E 139°40'0 0.0
2018-Feb-22 22:00N 35°27' E 139°40'0 0.0
2018-Feb-22 21:30N 35°27' E 139°40'0 0.0
2018-Feb-22 21:00N 35°27' E 139°40'0 0.0
2018-Feb-22 20:30N 35°27' E 139°40'0 0.0
2018-Feb-22 20:00N 35°27' E 139°40'0 0.0
2018-Feb-22 19:30N 35°27' E 139°40'0 0.0
2018-Feb-22 19:00N 35°27' E 139°40'0 0.0
2018-Feb-22 18:30N 35°27' E 139°40'0 0.0
2018-Feb-22 18:00N 35°27' E 139°40'0 0.0
2018-Feb-22 17:30N 35°27' E 139°40'0 0.0
2018-Feb-22 17:00N 35°27' E 139°40'0 0.0
2018-Feb-22 16:30N 35°27' E 139°40'0 0.0
2018-Feb-22 16:00N 35°27' E 139°40'0 0.0
2018-Feb-22 15:30N 35°27' E 139°40'0 0.0
2018-Feb-22 15:00N 35°27' E 139°40'0 0.0
2018-Feb-22 14:30N 35°27' E 139°40'0 0.0
2018-Feb-22 14:00N 35°27' E 139°40'0 0.0
2018-Feb-22 13:30N 35°27' E 139°40'0 0.0
2018-Feb-22 13:00N 35°27' E 139°40'0 0.0
2018-Feb-22 12:30N 35°27' E 139°40'0 0.0
2018-Feb-22 12:00N 35°27' E 139°40'0 0.0
2018-Feb-22 11:30N 35°27' E 139°40'0 0.0
2018-Feb-22 11:00N 35°27' E 139°40'0 0.0
2018-Feb-22 10:30N 35°27' E 139°40'0 0.0
2018-Feb-22 09:57N 35°27' E 139°40'0 0.0
2018-Feb-22 09:30N 35°27' E 139°40'0 0.0
2018-Feb-22 09:00N 35°27' E 139°40'0 0.0
2018-Feb-22 08:30N 35°27' E 139°40'0 0.0
2018-Feb-22 08:00N 35°27' E 139°40'0 0.0
2018-Feb-22 07:30N 35°27' E 139°40'0 0.0
2018-Feb-22 07:00N 35°27' E 139°40'0 0.0
2018-Feb-22 06:30N 35°27' E 139°40'0 0.0
2018-Feb-22 06:00N 35°27' E 139°40'0 0.0
2018-Feb-22 05:30N 35°27' E 139°40'0 0.0
2018-Feb-22 05:00N 35°27' E 139°40'0 0.0
2018-Feb-22 04:30N 35°27' E 139°40'0 0.0
2018-Feb-22 03:57N 35°27' E 139°40'0 0.0
2018-Feb-22 03:30N 35°27' E 139°40'0 0.0
2018-Feb-22 03:00N 35°27' E 139°40'0 0.0
2018-Feb-22 02:27N 35°27' E 139°40'0 0.0
2018-Feb-22 01:57N 35°27' E 139°40'0 0.1
2018-Feb-22 01:31N 35°27' E 139°40'2 4.7
2018-Feb-22 01:00N 35°26' E 139°42'4 7.6
2018-Feb-22 00:31N 35°22' E 139°40'0 0.1
2018-Feb-21 23:58N 35°22' E 139°40'0 0.0
2018-Feb-21 23:28N 35°22' E 139°40'0 0.0
2018-Feb-21 22:58N 35°22' E 139°40'0 0.0
2018-Feb-21 22:28N 35°22' E 139°40'1 1.8
2018-Feb-21 22:00N 35°22' E 139°41'0 0.0
2018-Feb-21 21:30N 35°22' E 139°41'0 0.0
2018-Feb-21 21:00N 35°22' E 139°41'0 0.0
2018-Feb-21 20:30N 35°22' E 139°41'0 0.0
2018-Feb-21 20:00N 35°22' E 139°41'0 0.0
2018-Feb-21 19:30N 35°22' E 139°41'0 0.0
2018-Feb-21 19:00N 35°22' E 139°41'0 0.0
2018-Feb-21 18:30N 35°22' E 139°41'0 0.0
2018-Feb-21 18:00N 35°22' E 139°41'0 0.0
2018-Feb-21 17:30N 35°22' E 139°41'0 0.0
2018-Feb-21 17:00N 35°22' E 139°41'0 0.0
2018-Feb-21 16:30N 35°22' E 139°41'0 0.0
2018-Feb-21 16:00N 35°22' E 139°41'0 0.3
2018-Feb-21 15:30N 35°22' E 139°41'1 1.2
2018-Feb-21 14:58N 35°23' E 139°40'0 0.0
2018-Feb-21 14:28N 35°23' E 139°40'0 0.0
2018-Feb-21 13:58N 35°23' E 139°40'0 0.0
2018-Feb-21 13:25N 35°23' E 139°40'0 0.0
2018-Feb-21 12:58N 35°23' E 139°40'0 0.0
2018-Feb-21 12:28N 35°23' E 139°40'0 0.0
2018-Feb-21 11:58N 35°23' E 139°40'0 0.0
2018-Feb-21 11:28N 35°23' E 139°40'0 0.0
2018-Feb-21 10:58N 35°23' E 139°40'0 0.0
2018-Feb-21 10:28N 35°23' E 139°40'0 0.0
2018-Feb-21 09:58N 35°23' E 139°40'0 0.6
2018-Feb-21 09:30N 35°23' E 139°40'4 8.8
2018-Feb-21 09:00N 35°26' E 139°44'510.3
2018-Feb-21 08:31N 35°29' E 139°50'711.0
2018-Feb-21 07:54N 35°32' E 139°57'411.2
2018-Feb-21 07:30N 35°34' E 140°01'4 7.2
2018-Feb-21 07:00N 35°36' E 140°05'0 0.0
2018-Feb-21 06:29N 35°36' E 140°05'0 0.0
2018-Feb-21 05:56N 35°36' E 140°05'0 0.0
2018-Feb-21 05:26N 35°36' E 140°05'0 0.0
2018-Feb-21 04:59N 35°36' E 140°05'0 0.0
2018-Feb-21 04:26N 35°36' E 140°05'0 0.0
2018-Feb-21 03:59N 35°36' E 140°05'0 0.0
2018-Feb-21 03:29N 35°36' E 140°05'0 0.0
2018-Feb-21 02:50N 35°36' E 140°05'0 0.0
2018-Feb-21 02:26N 35°36' E 140°05'0 0.0
2018-Feb-21 01:56N 35°36' E 140°05'0 0.0
2018-Feb-21 01:20N 35°36' E 140°05'0 0.0
2018-Feb-21 00:56N 35°36' E 140°05'0 0.0
2018-Feb-21 00:26N 35°36' E 140°05'0 0.0
2018-Feb-20 23:59N 35°36' E 140°05'0 0.0
2018-Feb-20 23:30N 35°36' E 140°05'2 3.5
2018-Feb-20 23:00N 35°35' E 140°03'2 4.5
2018-Feb-20 22:27N 35°33' E 140°01'0 0.0
2018-Feb-20 21:57N 35°33' E 140°01'0 0.0
2018-Feb-20 21:27N 35°33' E 140°01'0 0.0
2018-Feb-20 20:57N 35°33' E 140°01'0 0.0
2018-Feb-20 20:27N 35°33' E 140°01'0 0.0
2018-Feb-20 20:00N 35°33' E 140°01'0 0.1
2018-Feb-20 19:27N 35°33' E 140°01'0 0.0
2018-Feb-20 19:00N 35°33' E 140°01'0 0.0
2018-Feb-20 18:27N 35°33' E 140°01'0 0.1
2018-Feb-20 17:57N 35°33' E 140°01'0 0.0
2018-Feb-20 17:27N 35°33' E 140°01'0 0.0
2018-Feb-20 16:57N 35°33' E 140°01'0 0.0
2018-Feb-20 16:27N 35°33' E 140°01'0 0.0
2018-Feb-20 15:57N 35°33' E 140°01'0 0.0
2018-Feb-20 15:27N 35°33' E 140°01'0 0.1
2018-Feb-20 14:57N 35°33' E 140°01'0 0.2
2018-Feb-20 14:27N 35°33' E 140°01'0 0.0
2018-Feb-20 13:57N 35°33' E 140°01'0 0.0
2018-Feb-20 13:30N 35°33' E 140°01'0 0.0
2018-Feb-20 12:57N 35°33' E 140°01'0 0.0
2018-Feb-20 12:27N 35°33' E 140°01'0 0.0
2018-Feb-20 11:45N 35°33' E 140°01'0 0.0
2018-Feb-20 11:21N 35°33' E 140°01'0 0.0
2018-Feb-20 11:00N 35°33' E 140°01'0 0.0
2018-Feb-20 10:27N 35°33' E 140°01'0 0.0
2018-Feb-20 10:00N 35°33' E 140°01'0 0.0
2018-Feb-20 09:19N 35°33' E 140°01'2 7.3
2018-Feb-20 09:00N 35°32' E 139°59'612.0
2018-Feb-20 08:30N 35°29' E 139°53'612.5
2018-Feb-20 08:00N 35°26' E 139°46'510.8
2018-Feb-20 07:31N 35°22' E 139°41'0 0.2
2018-Feb-20 07:00N 35°23' E 139°41'0 0.0
2018-Feb-20 06:30N 35°23' E 139°41'0 0.1
2018-Feb-20 06:00N 35°23' E 139°41'1 1.9
2018-Feb-20 05:30N 35°23' E 139°42'611.2
2018-Feb-20 05:00N 35°27' E 139°46'2 3.2
2018-Feb-20 04:28N 35°29' E 139°48'0 0.0
2018-Feb-20 03:55N 35°29' E 139°48'0 0.0
2018-Feb-20 03:22N 35°28' E 139°48'0 0.0
2018-Feb-20 02:58N 35°29' E 139°48'0 0.0
2018-Feb-20 02:25N 35°28' E 139°48'0 0.0
2018-Feb-20 01:58N 35°28' E 139°48'0 0.0
2018-Feb-20 01:28N 35°28' E 139°48'0 0.0
2018-Feb-20 00:55N 35°28' E 139°48'0 0.1
2018-Feb-20 00:28N 35°28' E 139°48'0 0.0
2018-Feb-19 23:58N 35°28' E 139°48'0 0.0
2018-Feb-19 23:28N 35°28' E 139°48'0 0.0
2018-Feb-19 22:58N 35°28' E 139°48'0 0.0
2018-Feb-19 22:28N 35°28' E 139°48'0 0.0
2018-Feb-19 21:52N 35°28' E 139°48'0 0.0
2018-Feb-19 21:22N 35°28' E 139°48'0 0.1
2018-Feb-19 20:58N 35°28' E 139°48'0 0.0
2018-Feb-19 20:28N 35°28' E 139°48'0 0.0
2018-Feb-19 19:46N 35°28' E 139°48'0 0.2
2018-Feb-19 19:28N 35°28' E 139°48'0 0.0
2018-Feb-19 18:58N 35°28' E 139°48'0 0.0
2018-Feb-19 18:28N 35°28' E 139°48'0 0.0
2018-Feb-19 17:58N 35°28' E 139°48'0 0.0
2018-Feb-19 17:28N 35°28' E 139°48'0 0.0
2018-Feb-19 16:58N 35°28' E 139°48'0 0.0
2018-Feb-19 16:28N 35°28' E 139°48'0 0.0
2018-Feb-19 15:49N 35°28' E 139°48'0 0.0
2018-Feb-19 15:22N 35°28' E 139°48'0 0.0
2018-Feb-19 14:58N 35°28' E 139°48'0 0.0
2018-Feb-19 14:28N 35°28' E 139°48'0 0.1
2018-Feb-19 13:58N 35°28' E 139°48'0 0.0
2018-Feb-19 13:28N 35°28' E 139°48'0 0.0
2018-Feb-19 12:55N 35°28' E 139°48'0 0.0
2018-Feb-19 12:28N 35°28' E 139°48'0 0.0
2018-Feb-19 11:58N 35°28' E 139°48'1 2.5
2018-Feb-19 11:31N 35°30' E 139°48'2 4.8
2018-Feb-19 11:00N 35°31' E 139°46'0 0.0
2018-Feb-19 08:07N 35°31' E 139°46'0 0.4
2018-Feb-19 08:00N 35°31' E 139°46'1 0.2
2018-Feb-19 04:37N 35°31' E 139°46'0 0.5
2018-Feb-19 04:31N 35°31' E 139°46'2 4.2
2018-Feb-19 04:00N 35°30' E 139°48'1 2.3
2018-Feb-19 03:30N 35°28' E 139°48'0 0.0
2018-Feb-19 03:00N 35°28' E 139°48'0 0.0
2018-Feb-19 02:30N 35°28' E 139°48'0 0.0
2018-Feb-19 02:00N 35°28' E 139°48'0 0.0
2018-Feb-19 01:30N 35°28' E 139°48'1 2.8
2018-Feb-19 01:00N 35°27' E 139°48'611.3
2018-Feb-19 00:30N 35°22' E 139°45'5 9.8
2018-Feb-19 00:00N 35°17' E 139°45'510.4
2018-Feb-18 23:30N 35°12' E 139°47'611.7
2018-Feb-18 23:00N 35°06' E 139°45'711.5
2018-Feb-18 22:23N 35°01' E 139°39'2411.9
2018-Feb-18 20:23N 34°46' E 139°16'812.0
2018-Feb-18 19:43N 34°41' E 139°09'311.2
2018-Feb-18 19:27N 34°39' E 139°06'511.2
2018-Feb-18 18:59N 34°37' E 139°00'811.7
2018-Feb-18 18:17N 34°35' E 138°51'10011.5
2018-Feb-18 09:31N 34°42' E 136°49'112.2
2018-Feb-18 09:25N 34°43' E 136°48'512.3
2018-Feb-18 09:00N 34°48' E 136°46'612.3
2018-Feb-18 08:30N 34°54' E 136°46'611.5
2018-Feb-18 08:00N 34°59' E 136°49'2 3.4
2018-Feb-18 07:30N 35°00' E 136°51'0 0.2
2018-Feb-18 07:00N 34°60' E 136°51'0 0.5
2018-Feb-18 06:30N 34°60' E 136°51'0 0.0
2018-Feb-18 06:00N 34°60' E 136°51'0 0.0
2018-Feb-18 05:30N 34°60' E 136°51'0 0.0
2018-Feb-18 05:00N 34°60' E 136°51'0 0.0
2018-Feb-18 04:30N 34°60' E 136°51'0 0.0
2018-Feb-18 04:00N 34°60' E 136°51'0 0.0
2018-Feb-18 03:30N 34°60' E 136°51'1 1.0
2018-Feb-18 03:00N 35°00' E 136°50'2 3.7
2018-Feb-18 02:30N 34°59' E 136°49'4 8.9
2018-Feb-18 02:00N 34°55' E 136°47'5 9.1
2018-Feb-18 01:30N 34°50' E 136°47'510.8
2018-Feb-18 01:00N 34°45' E 136°49'20 9.9
2018-Feb-17 23:01N 34°34' E 137°09'111.7
2018-Feb-17 22:57N 34°34' E 137°10'68 9.6
2018-Feb-17 15:55N 34°39' E 138°32'5 8.1
2018-Feb-17 15:21N 34°38' E 138°38'4 7.6
2018-Feb-17 14:50N 34°37' E 138°42'2 6.7
2018-Feb-17 14:28N 34°37' E 138°45'7 5.6
2018-Feb-17 13:14N 34°36' E 138°53'1 5.4
2018-Feb-17 13:00N 34°36' E 138°55'4 6.3
2018-Feb-17 12:23N 34°38' E 138°59'4 9.3
2018-Feb-17 12:00N 34°40' E 139°02'710.8
2018-Feb-17 11:22N 34°46' E 139°06'1210.4
2018-Feb-17 10:12N 34°56' E 139°15'13 9.0
2018-Feb-17 08:45N 35°02' E 139°29'2 8.6
2018-Feb-17 08:30N 35°03' E 139°32'5 9.7
2018-Feb-17 07:58N 35°05' E 139°37'510.2
2018-Feb-17 07:30N 35°07' E 139°43'510.4
2018-Feb-17 07:00N 35°12' E 139°46'510.3
2018-Feb-17 06:30N 35°17' E 139°45'611.1
2018-Feb-17 06:00N 35°22' E 139°42'611.0
2018-Feb-17 05:30N 35°28' E 139°43'4 7.8
2018-Feb-17 05:00N 35°31' E 139°45'0 0.2
2018-Feb-17 04:21N 35°31' E 139°45'0 0.0
2018-Feb-17 03:51N 35°31' E 139°45'0 0.0
2018-Feb-17 03:21N 35°31' E 139°45'0 0.0
2018-Feb-17 02:57N 35°31' E 139°45'0 0.0
2018-Feb-17 02:03N 35°31' E 139°45'0 0.0
2018-Feb-17 01:57N 35°31' E 139°45'0 0.0
2018-Feb-17 01:21N 35°31' E 139°45'0 0.0
2018-Feb-17 01:00N 35°31' E 139°45'0 0.0
2018-Feb-17 00:27N 35°31' E 139°45'0 0.0
2018-Feb-16 23:48N 35°31' E 139°45'0 0.0
2018-Feb-16 23:24N 35°31' E 139°45'0 0.0
2018-Feb-16 22:57N 35°31' E 139°45'1 2.0
2018-Feb-16 22:30N 35°30' E 139°45'3 5.1
2018-Feb-16 21:52N 35°30' E 139°49'0 0.0
2018-Feb-16 21:19N 35°30' E 139°49'0 0.0
2018-Feb-16 20:58N 35°30' E 139°49'0 0.0
2018-Feb-16 20:28N 35°30' E 139°49'0 0.0
2018-Feb-16 19:49N 35°30' E 139°49'0 0.0
2018-Feb-16 19:16N 35°30' E 139°49'0 0.0
2018-Feb-16 18:49N 35°30' E 139°49'0 0.0
2018-Feb-16 18:28N 35°30' E 139°49'0 0.0
2018-Feb-16 17:55N 35°30' E 139°49'0 0.0
2018-Feb-16 17:25N 35°30' E 139°49'0 0.0
2018-Feb-16 16:55N 35°30' E 139°49'0 0.0
2018-Feb-16 16:25N 35°30' E 139°49'0 0.1
2018-Feb-16 15:58N 35°30' E 139°49'0 0.1
2018-Feb-16 15:25N 35°30' E 139°49'0 0.0
2018-Feb-16 14:58N 35°30' E 139°49'0 0.0
2018-Feb-16 13:31N 35°30' E 139°49'0 0.1
2018-Feb-16 13:25N 35°30' E 139°49'0 0.0
2018-Feb-16 12:55N 35°30' E 139°49'0 0.0
2018-Feb-16 12:19N 35°30' E 139°49'0 0.0
2018-Feb-16 11:58N 35°30' E 139°49'0 0.0
2018-Feb-16 11:28N 35°30' E 139°49'0 0.0
2018-Feb-16 10:58N 35°30' E 139°49'0 0.0
2018-Feb-16 10:25N 35°30' E 139°49'0 0.0
2018-Feb-16 09:58N 35°30' E 139°49'0 0.0
2018-Feb-16 09:25N 35°30' E 139°49'4 7.0
2018-Feb-16 08:52N 35°31' E 139°54'512.2
2018-Feb-16 08:28N 35°31' E 139°60'2 0.4
2018-Feb-16 04:04N 35°31' E 140°02'210.0
2018-Feb-16 03:50N 35°31' E 139°59'411.6
2018-Feb-16 03:28N 35°31' E 139°54'611.6
2018-Feb-16 03:00N 35°30' E 139°47'2 0.6
2018-Feb-15 22:58N 35°32' E 139°45'2 4.5
2018-Feb-15 22:28N 35°30' E 139°47'1 2.6
2018-Feb-15 21:54N 35°29' E 139°48'0 0.0
2018-Feb-15 21:21N 35°29' E 139°48'0 0.1
2018-Feb-15 21:00N 35°29' E 139°48'0 0.1
2018-Feb-15 20:30N 35°29' E 139°48'0 0.0
2018-Feb-15 20:00N 35°29' E 139°48'0 0.0
2018-Feb-15 19:30N 35°29' E 139°48'0 0.1
2018-Feb-15 19:00N 35°29' E 139°48'0 0.0
2018-Feb-15 18:30N 35°29' E 139°48'0 0.0
2018-Feb-15 18:00N 35°29' E 139°48'0 0.1
2018-Feb-15 17:30N 35°29' E 139°48'0 0.0
2018-Feb-15 17:00N 35°29' E 139°48'0 0.1
2018-Feb-15 16:30N 35°29' E 139°48'0 0.0
2018-Feb-15 16:00N 35°29' E 139°48'0 0.0
2018-Feb-15 15:30N 35°29' E 139°48'0 0.1
2018-Feb-15 14:57N 35°29' E 139°48'0 0.0
2018-Feb-15 14:30N 35°29' E 139°48'0 0.0
2018-Feb-15 14:00N 35°29' E 139°48'2 3.3
2018-Feb-15 13:31N 35°28' E 139°46'1 2.4
2018-Feb-15 13:01N 35°27' E 139°45'0 0.0
2018-Feb-15 12:31N 35°27' E 139°45'0 0.5
2018-Feb-15 11:59N 35°27' E 139°45'4 7.6
2018-Feb-15 11:30N 35°30' E 139°47'1 1.4
2018-Feb-15 11:00N 35°31' E 139°46'0 0.0
2018-Feb-15 09:26N 35°31' E 139°46'1 1.7
2018-Feb-15 09:00N 35°31' E 139°46'0 0.0
2018-Feb-15 04:26N 35°31' E 139°46'2 3.9
2018-Feb-15 03:59N 35°30' E 139°47'1 2.4
2018-Feb-15 03:26N 35°30' E 139°49'3 1.3
2018-Feb-15 01:07N 35°31' E 139°46'0 0.5
2018-Feb-15 01:00N 35°31' E 139°46'3 5.4
2018-Feb-15 00:30N 35°30' E 139°48'1 2.5
2018-Feb-15 00:00N 35°29' E 139°49'0 0.1
2018-Feb-14 23:30N 35°29' E 139°49'0 0.0
2018-Feb-14 23:00N 35°29' E 139°49'0 0.0
2018-Feb-14 22:27N 35°29' E 139°49'0 0.1
2018-Feb-14 22:00N 35°29' E 139°49'0 0.0
2018-Feb-14 21:30N 35°29' E 139°49'0 0.1
2018-Feb-14 20:59N 35°29' E 139°49'4 9.0
2018-Feb-14 20:30N 35°25' E 139°47'611.5
2018-Feb-14 19:59N 35°19' E 139°44'511.1
2018-Feb-14 19:30N 35°14' E 139°47'611.6
2018-Feb-14 19:00N 35°09' E 139°46'  
Track history (hours):
 
Tides and Currents Weather Stations Pressure Air Temp Water Temp Dewpoint Dewpoint Depression Visibility Wind Speed Wind Dir Waves Ship Positions

Nikkoumaru No.5

Last reported at 2018-Feb-24 18:00 UTC. Time now 2018-Feb-24 18:10 UTC.
Position N 34°39' E 135°21'.

Length 61 m; draft 4.2 m.

Type: Tanker. MMSI: 431000214.

Date/timePositionNaut miles runAvg speedWind from/ knotsBaromVisibWave heightAir tempDewpointWater temp
2018-Feb-24 18:00N 34°39' E 135°21'0 0.0
2018-Feb-24 17:30N 34°39' E 135°21'0 0.0
2018-Feb-24 17:00N 34°39' E 135°21'3 5.8
2018-Feb-24 16:31N 34°37' E 135°18'611.3
2018-Feb-24 16:00N 34°32' E 135°14'611.1
2018-Feb-24 15:30N 34°28' E 135°10'611.1
2018-Feb-24 15:01N 34°23' E 135°06'611.1
2018-Feb-24 14:30N 34°19' E 135°01'510.0
2018-Feb-24 14:00N 34°14' E 134°59'510.2
2018-Feb-24 13:30N 34°09' E 134°59'510.8
2018-Feb-24 13:00N 34°04' E 134°60'511.0
2018-Feb-24 12:31N 33°59' E 135°01'611.1
2018-Feb-24 11:59N 33°53' E 135°01'193 9.9
2018-Feb-23 16:26N 34°35' E 138°49'511.5
2018-Feb-23 15:59N 34°36' E 138°55'710.8
2018-Feb-23 15:20N 34°40' E 139°02'310.8
2018-Feb-23 15:01N 34°43' E 139°04'2310.8
2018-Feb-23 12:51N 34°59' E 139°24'510.7
2018-Feb-23 12:22N 35°02' E 139°30'411.5
2018-Feb-23 12:00N 35°04' E 139°34'611.9
2018-Feb-23 11:30N 35°07' E 139°41'611.6
2018-Feb-23 11:00N 35°11' E 139°45'510.7
2018-Feb-23 10:30N 35°17' E 139°45'611.2
2018-Feb-23 10:01N 35°22' E 139°42'510.6
2018-Feb-23 09:31N 35°26' E 139°46'611.7
2018-Feb-23 09:00N 35°30' E 139°51'611.7
2018-Feb-23 08:28N 35°32' E 139°59'4 8.6
2018-Feb-23 08:00N 35°32' E 140°04'0 0.0
2018-Feb-23 03:54N 35°32' E 140°04'1 3.0
2018-Feb-23 03:31N 35°32' E 140°02'3 5.5
2018-Feb-23 03:00N 35°32' E 139°59'511.0
2018-Feb-23 02:31N 35°29' E 139°53'611.0
2018-Feb-23 02:00N 35°27' E 139°47'510.7
2018-Feb-23 01:30N 35°27' E 139°40'1 1.0
2018-Feb-23 01:00N 35°27' E 139°40'0 0.0
2018-Feb-23 00:30N 35°27' E 139°40'0 0.0
2018-Feb-23 00:00N 35°27' E 139°40'0 0.0
2018-Feb-22 23:30N 35°27' E 139°40'0 0.0
2018-Feb-22 23:00N 35°27' E 139°40'0 0.0
2018-Feb-22 22:30N 35°27' E 139°40'0 0.0
2018-Feb-22 22:00N 35°27' E 139°40'0 0.0
2018-Feb-22 21:30N 35°27' E 139°40'0 0.0
2018-Feb-22 21:00N 35°27' E 139°40'0 0.0
2018-Feb-22 20:30N 35°27' E 139°40'0 0.0
2018-Feb-22 20:00N 35°27' E 139°40'0 0.0
2018-Feb-22 19:30N 35°27' E 139°40'0 0.0
2018-Feb-22 19:00N 35°27' E 139°40'0 0.0
2018-Feb-22 18:30N 35°27' E 139°40'0 0.0
2018-Feb-22 18:00N 35°27' E 139°40'0 0.0
2018-Feb-22 17:30N 35°27' E 139°40'0 0.0
2018-Feb-22 17:00N 35°27' E 139°40'0 0.0
2018-Feb-22 16:30N 35°27' E 139°40'0 0.0
2018-Feb-22 16:00N 35°27' E 139°40'0 0.0
2018-Feb-22 15:30N 35°27' E 139°40'0 0.0
2018-Feb-22 15:00N 35°27' E 139°40'0 0.0
2018-Feb-22 14:30N 35°27' E 139°40'0 0.0
2018-Feb-22 14:00N 35°27' E 139°40'0 0.0
2018-Feb-22 13:30N 35°27' E 139°40'0 0.0
2018-Feb-22 13:00N 35°27' E 139°40'0 0.0
2018-Feb-22 12:30N 35°27' E 139°40'0 0.0
2018-Feb-22 12:00N 35°27' E 139°40'0 0.0
2018-Feb-22 11:30N 35°27' E 139°40'0 0.0
2018-Feb-22 11:00N 35°27' E 139°40'0 0.0
2018-Feb-22 10:30N 35°27' E 139°40'0 0.0
2018-Feb-22 09:57N 35°27' E 139°40'0 0.0
2018-Feb-22 09:30N 35°27' E 139°40'0 0.0
2018-Feb-22 09:00N 35°27' E 139°40'0 0.0
2018-Feb-22 08:30N 35°27' E 139°40'0 0.0
2018-Feb-22 08:00N 35°27' E 139°40'0 0.0
2018-Feb-22 07:30N 35°27' E 139°40'0 0.0
2018-Feb-22 07:00N 35°27' E 139°40'0 0.0
2018-Feb-22 06:30N 35°27' E 139°40'0 0.0
2018-Feb-22 06:00N 35°27' E 139°40'0 0.0
2018-Feb-22 05:30N 35°27' E 139°40'0 0.0
2018-Feb-22 05:00N 35°27' E 139°40'0 0.0
2018-Feb-22 04:30N 35°27' E 139°40'0 0.0
2018-Feb-22 03:57N 35°27' E 139°40'0 0.0
2018-Feb-22 03:30N 35°27' E 139°40'0 0.0
2018-Feb-22 03:00N 35°27' E 139°40'0 0.0
2018-Feb-22 02:27N 35°27' E 139°40'0 0.0
2018-Feb-22 01:57N 35°27' E 139°40'0 0.1
2018-Feb-22 01:31N 35°27' E 139°40'2 4.7
2018-Feb-22 01:00N 35°26' E 139°42'4 7.6
2018-Feb-22 00:31N 35°22' E 139°40'0 0.1
2018-Feb-21 23:58N 35°22' E 139°40'0 0.0
2018-Feb-21 23:28N 35°22' E 139°40'0 0.0
2018-Feb-21 22:58N 35°22' E 139°40'0 0.0
2018-Feb-21 22:28N 35°22' E 139°40'1 1.8
2018-Feb-21 22:00N 35°22' E 139°41'0 0.0
2018-Feb-21 21:30N 35°22' E 139°41'0 0.0
2018-Feb-21 21:00N 35°22' E 139°41'0 0.0
2018-Feb-21 20:30N 35°22' E 139°41'0 0.0
2018-Feb-21 20:00N 35°22' E 139°41'0 0.0
2018-Feb-21 19:30N 35°22' E 139°41'0 0.0
2018-Feb-21 19:00N 35°22' E 139°41'0 0.0
2018-Feb-21 18:30N 35°22' E 139°41'0 0.0
2018-Feb-21 18:00N 35°22' E 139°41'0 0.0
2018-Feb-21 17:30N 35°22' E 139°41'0 0.0
2018-Feb-21 17:00N 35°22' E 139°41'0 0.0
2018-Feb-21 16:30N 35°22' E 139°41'0 0.0
2018-Feb-21 16:00N 35°22' E 139°41'0 0.3
2018-Feb-21 15:30N 35°22' E 139°41'1 1.2
2018-Feb-21 14:58N 35°23' E 139°40'0 0.0
2018-Feb-21 14:28N 35°23' E 139°40'0 0.0
2018-Feb-21 13:58N 35°23' E 139°40'0 0.0
2018-Feb-21 13:25N 35°23' E 139°40'0 0.0
2018-Feb-21 12:58N 35°23' E 139°40'0 0.0
2018-Feb-21 12:28N 35°23' E 139°40'0 0.0
2018-Feb-21 11:58N 35°23' E 139°40'0 0.0
2018-Feb-21 11:28N 35°23' E 139°40'0 0.0
2018-Feb-21 10:58N 35°23' E 139°40'0 0.0
2018-Feb-21 10:28N 35°23' E 139°40'0 0.0
2018-Feb-21 09:58N 35°23' E 139°40'0 0.6
2018-Feb-21 09:30N 35°23' E 139°40'4 8.8
2018-Feb-21 09:00N 35°26' E 139°44'510.3
2018-Feb-21 08:31N 35°29' E 139°50'711.0
2018-Feb-21 07:54N 35°32' E 139°57'411.2
2018-Feb-21 07:30N 35°34' E 140°01'4 7.2
2018-Feb-21 07:00N 35°36' E 140°05'0 0.0
2018-Feb-21 06:29N 35°36' E 140°05'0 0.0
2018-Feb-21 05:56N 35°36' E 140°05'0 0.0
2018-Feb-21 05:26N 35°36' E 140°05'0 0.0
2018-Feb-21 04:59N 35°36' E 140°05'0 0.0
2018-Feb-21 04:26N 35°36' E 140°05'0 0.0
2018-Feb-21 03:59N 35°36' E 140°05'0 0.0
2018-Feb-21 03:29N 35°36' E 140°05'0 0.0
2018-Feb-21 02:50N 35°36' E 140°05'0 0.0
2018-Feb-21 02:26N 35°36' E 140°05'0 0.0
2018-Feb-21 01:56N 35°36' E 140°05'0 0.0
2018-Feb-21 01:20N 35°36' E 140°05'0 0.0
2018-Feb-21 00:56N 35°36' E 140°05'0 0.0
2018-Feb-21 00:26N 35°36' E 140°05'0 0.0
2018-Feb-20 23:59N 35°36' E 140°05'0 0.0
2018-Feb-20 23:30N 35°36' E 140°05'2 3.5
2018-Feb-20 23:00N 35°35' E 140°03'2 4.5
2018-Feb-20 22:27N 35°33' E 140°01'0 0.0
2018-Feb-20 21:57N 35°33' E 140°01'0 0.0
2018-Feb-20 21:27N 35°33' E 140°01'0 0.0
2018-Feb-20 20:57N 35°33' E 140°01'0 0.0
2018-Feb-20 20:27N 35°33' E 140°01'0 0.0
2018-Feb-20 20:00N 35°33' E 140°01'0 0.1
2018-Feb-20 19:27N 35°33' E 140°01'0 0.0
2018-Feb-20 19:00N 35°33' E 140°01'0 0.0
2018-Feb-20 18:27N 35°33' E 140°01'0 0.1
2018-Feb-20 17:57N 35°33' E 140°01'0 0.0
2018-Feb-20 17:27N 35°33' E 140°01'0 0.0
2018-Feb-20 16:57N 35°33' E 140°01'0 0.0
2018-Feb-20 16:27N 35°33' E 140°01'0 0.0
2018-Feb-20 15:57N 35°33' E 140°01'0 0.0
2018-Feb-20 15:27N 35°33' E 140°01'0 0.1
2018-Feb-20 14:57N 35°33' E 140°01'0 0.2
2018-Feb-20 14:27N 35°33' E 140°01'0 0.0
2018-Feb-20 13:57N 35°33' E 140°01'0 0.0
2018-Feb-20 13:30N 35°33' E 140°01'0 0.0
2018-Feb-20 12:57N 35°33' E 140°01'0 0.0
2018-Feb-20 12:27N 35°33' E 140°01'0 0.0
2018-Feb-20 11:45N 35°33' E 140°01'0 0.0
2018-Feb-20 11:21N 35°33' E 140°01'0 0.0
2018-Feb-20 11:00N 35°33' E 140°01'0 0.0
2018-Feb-20 10:27N 35°33' E 140°01'0 0.0
2018-Feb-20 10:00N 35°33' E 140°01'0 0.0
2018-Feb-20 09:19N 35°33' E 140°01'2 7.3
2018-Feb-20 09:00N 35°32' E 139°59'612.0
2018-Feb-20 08:30N 35°29' E 139°53'612.5
2018-Feb-20 08:00N 35°26' E 139°46'510.8
2018-Feb-20 07:31N 35°22' E 139°41'0 0.2
2018-Feb-20 07:00N 35°23' E 139°41'0 0.0
2018-Feb-20 06:30N 35°23' E 139°41'0 0.1
2018-Feb-20 06:00N 35°23' E 139°41'1 1.9
2018-Feb-20 05:30N 35°23' E 139°42'611.2
2018-Feb-20 05:00N 35°27' E 139°46'2 3.2
2018-Feb-20 04:28N 35°29' E 139°48'0 0.0
2018-Feb-20 03:55N 35°29' E 139°48'0 0.0
2018-Feb-20 03:22N 35°28' E 139°48'0 0.0
2018-Feb-20 02:58N 35°29' E 139°48'0 0.0
2018-Feb-20 02:25N 35°28' E 139°48'0 0.0
2018-Feb-20 01:58N 35°28' E 139°48'0 0.0
2018-Feb-20 01:28N 35°28' E 139°48'0 0.0
2018-Feb-20 00:55N 35°28' E 139°48'0 0.1
2018-Feb-20 00:28N 35°28' E 139°48'0 0.0
2018-Feb-19 23:58N 35°28' E 139°48'0 0.0
2018-Feb-19 23:28N 35°28' E 139°48'0 0.0
2018-Feb-19 22:58N 35°28' E 139°48'0 0.0
2018-Feb-19 22:28N 35°28' E 139°48'0 0.0
2018-Feb-19 21:52N 35°28' E 139°48'0 0.0
2018-Feb-19 21:22N 35°28' E 139°48'0 0.1
2018-Feb-19 20:58N 35°28' E 139°48'0 0.0
2018-Feb-19 20:28N 35°28' E 139°48'0 0.0
2018-Feb-19 19:46N 35°28' E 139°48'0 0.2
2018-Feb-19 19:28N 35°28' E 139°48'0 0.0
2018-Feb-19 18:58N 35°28' E 139°48'0 0.0
2018-Feb-19 18:28N 35°28' E 139°48'0 0.0
2018-Feb-19 17:58N 35°28' E 139°48'0 0.0
2018-Feb-19 17:28N 35°28' E 139°48'0 0.0
2018-Feb-19 16:58N 35°28' E 139°48'0 0.0
2018-Feb-19 16:28N 35°28' E 139°48'0 0.0
2018-Feb-19 15:49N 35°28' E 139°48'0 0.0
2018-Feb-19 15:22N 35°28' E 139°48'0 0.0
2018-Feb-19 14:58N 35°28' E 139°48'0 0.0
2018-Feb-19 14:28N 35°28' E 139°48'0 0.1
2018-Feb-19 13:58N 35°28' E 139°48'0 0.0
2018-Feb-19 13:28N 35°28' E 139°48'0 0.0
2018-Feb-19 12:55N 35°28' E 139°48'0 0.0
2018-Feb-19 12:28N 35°28' E 139°48'0 0.0
2018-Feb-19 11:58N 35°28' E 139°48'1 2.5
2018-Feb-19 11:31N 35°30' E 139°48'2 4.8
2018-Feb-19 11:00N 35°31' E 139°46'0 0.0
2018-Feb-19 08:07N 35°31' E 139°46'0 0.4
2018-Feb-19 08:00N 35°31' E 139°46'1 0.2
2018-Feb-19 04:37N 35°31' E 139°46'0 0.5
2018-Feb-19 04:31N 35°31' E 139°46'2 4.2
2018-Feb-19 04:00N 35°30' E 139°48'1 2.3
2018-Feb-19 03:30N 35°28' E 139°48'0 0.0
2018-Feb-19 03:00N 35°28' E 139°48'0 0.0
2018-Feb-19 02:30N 35°28' E 139°48'0 0.0
2018-Feb-19 02:00N 35°28' E 139°48'0 0.0
2018-Feb-19 01:30N 35°28' E 139°48'1 2.8
2018-Feb-19 01:00N 35°27' E 139°48'611.3
2018-Feb-19 00:30N 35°22' E 139°45'5 9.8
2018-Feb-19 00:00N 35°17' E 139°45'510.4
2018-Feb-18 23:30N 35°12' E 139°47'611.7
2018-Feb-18 23:00N 35°06' E 139°45'711.5
2018-Feb-18 22:23N 35°01' E 139°39'2411.9
2018-Feb-18 20:23N 34°46' E 139°16'812.0
2018-Feb-18 19:43N 34°41' E 139°09'311.2
2018-Feb-18 19:27N 34°39' E 139°06'511.2
2018-Feb-18 18:59N 34°37' E 139°00'811.7
2018-Feb-18 18:17N 34°35' E 138°51'10011.5
2018-Feb-18 09:31N 34°42' E 136°49'112.2
2018-Feb-18 09:25N 34°43' E 136°48'512.3
2018-Feb-18 09:00N 34°48' E 136°46'612.3
2018-Feb-18 08:30N 34°54' E 136°46'611.5
2018-Feb-18 08:00N 34°59' E 136°49'2 3.4
2018-Feb-18 07:30N 35°00' E 136°51'0 0.2
2018-Feb-18 07:00N 34°60' E 136°51'0 0.5
2018-Feb-18 06:30N 34°60' E 136°51'0 0.0
2018-Feb-18 06:00N 34°60' E 136°51'0 0.0
2018-Feb-18 05:30N 34°60' E 136°51'0 0.0
2018-Feb-18 05:00N 34°60' E 136°51'0 0.0
2018-Feb-18 04:30N 34°60' E 136°51'0 0.0
2018-Feb-18 04:00N 34°60' E 136°51'0 0.0
2018-Feb-18 03:30N 34°60' E 136°51'1 1.0
2018-Feb-18 03:00N 35°00' E 136°50'2 3.7
2018-Feb-18 02:30N 34°59' E 136°49'4 8.9
2018-Feb-18 02:00N 34°55' E 136°47'5 9.1
2018-Feb-18 01:30N 34°50' E 136°47'510.8
2018-Feb-18 01:00N 34°45' E 136°49'20 9.9
2018-Feb-17 23:01N 34°34' E 137°09'111.7
2018-Feb-17 22:57N 34°34' E 137°10'68 9.6
2018-Feb-17 15:55N 34°39' E 138°32'5 8.1
2018-Feb-17 15:21N 34°38' E 138°38'4 7.6
2018-Feb-17 14:50N 34°37' E 138°42'2 6.7
2018-Feb-17 14:28N 34°37' E 138°45'7 5.6
2018-Feb-17 13:14N 34°36' E 138°53'1 5.4
2018-Feb-17 13:00N 34°36' E 138°55'4 6.3
2018-Feb-17 12:23N 34°38' E 138°59'4 9.3
2018-Feb-17 12:00N 34°40' E 139°02'710.8
2018-Feb-17 11:22N 34°46' E 139°06'1210.4
2018-Feb-17 10:12N 34°56' E 139°15'13 9.0
2018-Feb-17 08:45N 35°02' E 139°29'2 8.6
2018-Feb-17 08:30N 35°03' E 139°32'5 9.7
2018-Feb-17 07:58N 35°05' E 139°37'510.2
2018-Feb-17 07:30N 35°07' E 139°43'510.4
2018-Feb-17 07:00N 35°12' E 139°46'510.3
2018-Feb-17 06:30N 35°17' E 139°45'611.1
2018-Feb-17 06:00N 35°22' E 139°42'611.0
2018-Feb-17 05:30N 35°28' E 139°43'4 7.8
2018-Feb-17 05:00N 35°31' E 139°45'0 0.2
2018-Feb-17 04:21N 35°31' E 139°45'0 0.0
2018-Feb-17 03:51N 35°31' E 139°45'0 0.0
2018-Feb-17 03:21N 35°31' E 139°45'0 0.0
2018-Feb-17 02:57N 35°31' E 139°45'0 0.0
2018-Feb-17 02:03N 35°31' E 139°45'0 0.0
2018-Feb-17 01:57N 35°31' E 139°45'0 0.0
2018-Feb-17 01:21N 35°31' E 139°45'0 0.0
2018-Feb-17 01:00N 35°31' E 139°45'0 0.0
2018-Feb-17 00:27N 35°31' E 139°45'0 0.0
2018-Feb-16 23:48N 35°31' E 139°45'0 0.0
2018-Feb-16 23:24N 35°31' E 139°45'0 0.0
2018-Feb-16 22:57N 35°31' E 139°45'1 2.0
2018-Feb-16 22:30N 35°30' E 139°45'3 5.1
2018-Feb-16 21:52N 35°30' E 139°49'0 0.0
2018-Feb-16 21:19N 35°30' E 139°49'0 0.0
2018-Feb-16 20:58N 35°30' E 139°49'0 0.0
2018-Feb-16 20:28N 35°30' E 139°49'0 0.0
2018-Feb-16 19:49N 35°30' E 139°49'0 0.0
2018-Feb-16 19:16N 35°30' E 139°49'0 0.0
2018-Feb-16 18:49N 35°30' E 139°49'0 0.0
2018-Feb-16 18:28N 35°30' E 139°49'0 0.0
2018-Feb-16 17:55N 35°30' E 139°49'0 0.0
2018-Feb-16 17:25N 35°30' E 139°49'0 0.0
2018-Feb-16 16:55N 35°30' E 139°49'0 0.0
2018-Feb-16 16:25N 35°30' E 139°49'0 0.1
2018-Feb-16 15:58N 35°30' E 139°49'0 0.1
2018-Feb-16 15:25N 35°30' E 139°49'0 0.0
2018-Feb-16 14:58N 35°30' E 139°49'0 0.0
2018-Feb-16 13:31N 35°30' E 139°49'0 0.1
2018-Feb-16 13:25N 35°30' E 139°49'0 0.0
2018-Feb-16 12:55N 35°30' E 139°49'0 0.0
2018-Feb-16 12:19N 35°30' E 139°49'0 0.0
2018-Feb-16 11:58N 35°30' E 139°49'0 0.0
2018-Feb-16 11:28N 35°30' E 139°49'0 0.0
2018-Feb-16 10:58N 35°30' E 139°49'0 0.0
2018-Feb-16 10:25N 35°30' E 139°49'0 0.0
2018-Feb-16 09:58N 35°30' E 139°49'0 0.0
2018-Feb-16 09:25N 35°30' E 139°49'4 7.0
2018-Feb-16 08:52N 35°31' E 139°54'512.2
2018-Feb-16 08:28N 35°31' E 139°60'2 0.4
2018-Feb-16 04:04N 35°31' E 140°02'210.0
2018-Feb-16 03:50N 35°31' E 139°59'411.6
2018-Feb-16 03:28N 35°31' E 139°54'611.6
2018-Feb-16 03:00N 35°30' E 139°47'2 0.6
2018-Feb-15 22:58N 35°32' E 139°45'2 4.5
2018-Feb-15 22:28N 35°30' E 139°47'1 2.6
2018-Feb-15 21:54N 35°29' E 139°48'0 0.0
2018-Feb-15 21:21N 35°29' E 139°48'0 0.1
2018-Feb-15 21:00N 35°29' E 139°48'0 0.1
2018-Feb-15 20:30N 35°29' E 139°48'0 0.0
2018-Feb-15 20:00N 35°29' E 139°48'0 0.0
2018-Feb-15 19:30N 35°29' E 139°48'0 0.1
2018-Feb-15 19:00N 35°29' E 139°48'0 0.0
2018-Feb-15 18:30N 35°29' E 139°48'0 0.0
2018-Feb-15 18:00N 35°29' E 139°48'0 0.1
2018-Feb-15 17:30N 35°29' E 139°48'0 0.0
2018-Feb-15 17:00N 35°29' E 139°48'0 0.1
2018-Feb-15 16:30N 35°29' E 139°48'0 0.0
2018-Feb-15 16:00N 35°29' E 139°48'0 0.0
2018-Feb-15 15:30N 35°29' E 139°48'0 0.1
2018-Feb-15 14:57N 35°29' E 139°48'0 0.0
2018-Feb-15 14:30N 35°29' E 139°48'0 0.0
2018-Feb-15 14:00N 35°29' E 139°48'2 3.3
2018-Feb-15 13:31N 35°28' E 139°46'1 2.4
2018-Feb-15 13:01N 35°27' E 139°45'0 0.0
2018-Feb-15 12:31N 35°27' E 139°45'0 0.5
2018-Feb-15 11:59N 35°27' E 139°45'4 7.6
2018-Feb-15 11:30N 35°30' E 139°47'1 1.4
2018-Feb-15 11:00N 35°31' E 139°46'0 0.0
2018-Feb-15 09:26N 35°31' E 139°46'1 1.7
2018-Feb-15 09:00N 35°31' E 139°46'0 0.0
2018-Feb-15 04:26N 35°31' E 139°46'2 3.9
2018-Feb-15 03:59N 35°30' E 139°47'1 2.4
2018-Feb-15 03:26N 35°30' E 139°49'3 1.3
2018-Feb-15 01:07N 35°31' E 139°46'0 0.5
2018-Feb-15 01:00N 35°31' E 139°46'3 5.4
2018-Feb-15 00:30N 35°30' E 139°48'1 2.5
2018-Feb-15 00:00N 35°29' E 139°49'0 0.1
2018-Feb-14 23:30N 35°29' E 139°49'0 0.0
2018-Feb-14 23:00N 35°29' E 139°49'0 0.0
2018-Feb-14 22:27N 35°29' E 139°49'0 0.1
2018-Feb-14 22:00N 35°29' E 139°49'0 0.0
2018-Feb-14 21:30N 35°29' E 139°49'0 0.1
2018-Feb-14 20:59N 35°29' E 139°49'4 9.0
2018-Feb-14 20:30N 35°25' E 139°47'611.5
2018-Feb-14 19:59N 35°19' E 139°44'511.1
2018-Feb-14 19:30N 35°14' E 139°47'611.6
2018-Feb-14 19:00N 35°09' E 139°46'  

Dump ship's entire track history